»·PEaware :: N703TE L88-L52

N703TE :: L88-L52

FLIGHT INFORMATION

Flight Status: Arrived
Operator: Privately registered:
United States
More flights under this callsign
Pilot: Daniel S. (25371)
Aircraft: CESSNA 172 SKYHAWK
(C172)
More flights by this aircraft type
Origin: L88 New Cuyama
United States
Destination: L52 Oceano Co
United States
More flights between these airports :: More routes between these airports
Route:
File this flight plan on PilotEdge
Remarks:
Altitude:
(Current/Filed)
6,500ft
Speed:
(Current/Filed)
140kts
Departed: 10-Jul-19 07:03 PM
Arrived: 10-Jul-19 07:29 PM
Distance/Time
Traveled:
43nm/0:25
Distance/Time
To Go:
Arrived

Flight Plot

Page will automatically refresh every two minutes.


Map Options




Map Legend


Flown Route
Filed Route
Departure Airport
Arrival Airport
Navaid (VOR, NDB)
Fix

Horizontal Profiles

Position Reports

Time Latitude Longitude Heading Altitude Ground
Speed
10-Jul-19 18:06 35.102564 -120.623045 207 16ft 0kts
10-Jul-19 18:07 35.102564 -120.623045 207 16ft 0kts
10-Jul-19 18:08 35.102564 -120.623045 207 16ft 0kts
10-Jul-19 18:09 35.102564 -120.623045 207 16ft 0kts
10-Jul-19 18:10 35.102564 -120.623045 207 16ft 0kts
10-Jul-19 18:11 35.102564 -120.623045 207 16ft 0kts
10-Jul-19 18:12 35.102564 -120.623045 207 16ft 0kts
10-Jul-19 18:13 35.102564 -120.623045 207 16ft 0kts
10-Jul-19 18:14 35.102564 -120.623045 207 16ft 0kts
10-Jul-19 18:15 35.102564 -120.623045 207 16ft 0kts
10-Jul-19 18:16 35.102564 -120.623045 207 16ft 0kts
10-Jul-19 18:17 35.102564 -120.623045 207 16ft 0kts
10-Jul-19 18:18 35.102564 -120.623045 207 16ft 0kts
10-Jul-19 18:19 35.102564 -120.623045 207 16ft 0kts
10-Jul-19 18:20 35.102564 -120.623045 207 16ft 0kts
10-Jul-19 18:21 35.102564 -120.623045 207 16ft 0kts
10-Jul-19 18:22 35.102564 -120.623045 207 16ft 0kts
10-Jul-19 18:23 35.102564 -120.623045 207 16ft 0kts
10-Jul-19 18:24 35.102564 -120.623045 207 16ft 0kts
10-Jul-19 18:25 35.102564 -120.623045 207 16ft 0kts
10-Jul-19 18:26 35.102564 -120.623045 207 16ft 0kts
10-Jul-19 18:27 35.102564 -120.623045 207 16ft 0kts
10-Jul-19 18:28 35.102564 -120.623045 207 16ft 0kts
10-Jul-19 18:29 35.102564 -120.623045 207 16ft 0kts
10-Jul-19 18:30 35.102564 -120.623045 207 16ft 0kts
10-Jul-19 18:31 35.102564 -120.623045 207 16ft 0kts
10-Jul-19 18:32 35.102564 -120.623045 207 16ft 0kts
10-Jul-19 18:33 35.102564 -120.623045 207 16ft 0kts
10-Jul-19 18:34 35.102564 -120.623045 207 16ft 0kts
10-Jul-19 18:35 35.102564 -120.623045 207 16ft 0kts
10-Jul-19 18:36 35.102564 -120.623045 207 16ft 0kts
10-Jul-19 18:37 35.102564 -120.623045 207 16ft 0kts
10-Jul-19 18:38 35.102564 -120.623045 207 16ft 0kts
10-Jul-19 18:39 35.102564 -120.623045 207 16ft 0kts
10-Jul-19 18:40 35.102564 -120.623045 207 16ft 0kts
10-Jul-19 18:41 35.102564 -120.623045 207 16ft 0kts
10-Jul-19 18:42 35.102564 -120.623045 207 16ft 0kts
10-Jul-19 18:43 35.102564 -120.623045 207 16ft 0kts
10-Jul-19 18:44 35.102564 -120.623045 207 16ft 0kts
10-Jul-19 18:45 35.102564 -120.623045 207 16ft 0kts
10-Jul-19 18:46 35.102564 -120.623045 207 16ft 0kts
10-Jul-19 18:47 35.102564 -120.623045 207 16ft 0kts
10-Jul-19 18:48 35.102564 -120.623045 207 16ft 0kts
10-Jul-19 18:49 35.102564 -120.623045 207 16ft 0kts
10-Jul-19 18:50 35.102564 -120.623045 207 16ft 0kts
10-Jul-19 18:51 35.102564 -120.623045 207 16ft 0kts
10-Jul-19 18:52 35.102564 -120.623045 207 16ft 0kts
10-Jul-19 18:53 35.102564 -120.623045 207 16ft 0kts
10-Jul-19 18:54 35.102564 -120.623045 207 16ft 0kts
10-Jul-19 18:55 35.102564 -120.623045 207 16ft 0kts
10-Jul-19 18:56 35.102564 -120.623045 207 16ft 0kts
10-Jul-19 18:57 35.102564 -120.623045 207 16ft 0kts
10-Jul-19 18:58 35.102558 -120.623049 205 16ft 0kts
10-Jul-19 18:59 35.102558 -120.623049 205 16ft 0kts
10-Jul-19 19:00 35.101009 -120.622203 129 16ft 8kts
10-Jul-19 19:01 35.100347 -120.620028 304 17ft 37kts
10-Jul-19 19:02 35.115220 -120.635097 354 666ft 90kts
10-Jul-19 19:03 35.099206 -120.628332 143 1305ft 116kts
10-Jul-19 19:04 35.073327 -120.604037 141 1823ft 122kts
10-Jul-19 19:05 35.046404 -120.578978 142 2243ft 122kts
10-Jul-19 19:06 35.019074 -120.554230 142 2612ft 123kts
10-Jul-19 19:08 34.992249 -120.528105 138 2948ft 123kts
10-Jul-19 19:09 34.966799 -120.500135 136 2786ft 122kts
10-Jul-19 19:10 34.950029 -120.528162 249 2233ft 106kts
10-Jul-19 19:11 34.944091 -120.561325 265 2224ft 104kts
10-Jul-19 19:12 34.944633 -120.597151 271 2290ft 107kts
10-Jul-19 19:13 34.953519 -120.630104 308 2207ft 106kts
10-Jul-19 19:14 34.970707 -120.623739 98 2149ft 95kts
10-Jul-19 19:15 34.971041 -120.592672 86 2049ft 93kts
10-Jul-19 19:16 34.976066 -120.561185 82 1877ft 95kts
10-Jul-19 19:17 34.968483 -120.536232 180 1879ft 86kts
10-Jul-19 19:18 34.947237 -120.553403 229 1749ft 106kts
10-Jul-19 19:19 34.957407 -120.585487 311 1820ft 101kts
10-Jul-19 19:20 34.978438 -120.609399 316 2034ft 105kts
10-Jul-19 19:21 35.003740 -120.618983 24 2285ft 104kts
10-Jul-19 19:22 35.002941 -120.589810 125 2474ft 105kts
10-Jul-19 19:23 34.985116 -120.561339 122 2507ft 102kts
10-Jul-19 19:24 34.969955 -120.534390 100 1782ft 93kts
10-Jul-19 19:25 34.974506 -120.500037 73 1379ft 121kts
10-Jul-19 19:25 34.982472 -120.465042 74 1001ft 131kts
10-Jul-19 19:27 35.018339 -120.442807 14 681ft 128kts
10-Jul-19 19:27 35.045233 -120.449088 314 629ft 122kts
10-Jul-19 19:28 35.103552 -120.624284 214 15ft 0kts
10-Jul-19 19:30 35.103552 -120.624284 214 15ft 0kts
10-Jul-19 19:30 35.103552 -120.624284 214 15ft 0kts
10-Jul-19 19:31 35.103552 -120.624284 214 15ft 0kts
10-Jul-19 19:32 35.103552 -120.624284 214 15ft 0kts
10-Jul-19 19:33 35.103552 -120.624284 214 15ft 0kts
10-Jul-19 19:34 35.103552 -120.624284 214 15ft 0kts
10-Jul-19 19:35 35.103552 -120.624284 214 15ft 0kts
10-Jul-19 19:36 35.103552 -120.624284 214 15ft 0kts
10-Jul-19 19:37 35.103552 -120.624284 214 15ft 0kts
10-Jul-19 19:38 35.103337 -120.625293 220 14ft 11kts
10-Jul-19 19:39 35.097366 -120.614833 125 205ft 94kts
10-Jul-19 19:40 35.078468 -120.592699 162 1189ft 102kts
10-Jul-19 19:41 35.052927 -120.581397 149 2186ft 98kts
10-Jul-19 19:42 35.029789 -120.563536 146 3064ft 99kts

Navigation Log

Ident Type
Flight plan parsing failed, navigation log unavailable